Time;durP1;ratioP1;P1;durP2;ratioP2;P2;SDS_P1;SDS_P2;PMS_P1;PMS_P2;Temp;Humidity;BMP_temperature;BMP_pressure;BME280_temperature;BME280_humidity;BME280_pressure;Samples;Min_cycle;Max_cycle;Signal;HPM_P1;HPM_P2
2023/05/03 00:00:52;;;;;;;7.55;5.20;;;;;;;;;;4995624;28;20065;-77
2023/05/03 00:03:23;;;;;;;6.35;4.88;;;;;;;;;;4995591;28;20422;-77
2023/05/03 00:05:50;;;;;;;5.32;4.38;;;;;;;;;;4979859;28;20049;-77
2023/05/03 00:08:16;;;;;;;6.82;4.75;;;;;;;;;;4995795;28;20050;-76
2023/05/03 00:10:43;;;;;;;6.43;4.95;;;;;;;;;;4995060;28;20502;-76
2023/05/03 00:13:10;;;;;;;9.68;5.15;;;;;;;;;;4975655;28;20090;-78
2023/05/03 00:15:36;;;;;;;7.32;5.38;;;;;;;;;;4959961;28;20061;-78
2023/05/03 00:18:03;;;;;;;6.88;4.90;;;;;;;;;;4975797;28;20543;-78
2023/05/03 00:20:30;;;;;;;6.30;4.78;;;;;;;;;;4975613;28;20104;-78
2023/05/03 00:22:57;;;;;;;5.88;4.97;;;;;;;;;;4985905;28;20057;-77
2023/05/03 00:25:23;;;;;;;9.43;6.00;;;;;;;;;;4979231;28;20065;-77
2023/05/03 00:27:50;;;;;;;8.00;4.68;;;;;;;;;;4979329;28;20056;-78
2023/05/03 00:30:18;;;;;;;7.97;5.22;;;;;;;;;;4996185;28;20054;-79
2023/05/03 00:32:45;;;;;;;7.30;4.85;;;;;;;;;;4978804;28;20175;-79
2023/05/03 00:35:11;;;;;;;7.20;4.75;;;;;;;;;;4962899;28;20058;-79
2023/05/03 00:37:39;;;;;;;5.22;4.63;;;;;;;;;;4977657;28;20094;-78
2023/05/03 00:40:06;;;;;;;6.80;4.35;;;;;;;;;;4959241;28;20137;-78
2023/05/03 00:42:37;;;;;;;7.30;4.88;;;;;;;;;;4967416;28;20057;-78
2023/05/03 00:45:05;;;;;;;6.50;4.50;;;;;;;;;;4980337;28;20516;-78
2023/05/03 00:47:32;;;;;;;5.10;3.72;;;;;;;;;;4980010;28;20049;-78
2023/05/03 00:49:59;;;;;;;9.00;4.82;;;;;;;;;;4980026;28;20514;-77
2023/05/03 00:52:26;;;;;;;7.32;5.35;;;;;;;;;;4976855;28;20050;-78
2023/05/03 00:54:53;;;;;;;7.75;5.28;;;;;;;;;;4977131;28;20073;-78
2023/05/03 00:57:21;;;;;;;5.43;4.55;;;;;;;;;;4959666;28;20417;-77
2023/05/03 00:59:48;;;;;;;7.22;4.47;;;;;;;;;;4959481;28;20097;-77
2023/05/03 01:02:15;;;;;;;6.43;5.00;;;;;;;;;;4978546;28;20068;-77
2023/05/03 01:04:42;;;;;;;7.00;5.22;;;;;;;;;;4994829;28;20046;-78
2023/05/03 01:07:18;;;;;;;14.20;6.22;;;;;;;;;;4978341;28;20050;-77
2023/05/03 01:10:06;;;;;;;6.32;5.05;;;;;;;;;;4994414;28;20062;-77
2023/05/03 01:12:55;;;;;;;7.07;5.35;;;;;;;;;;4994862;28;20049;-77
2023/05/03 01:15:50;;;;;;;8.73;5.57;;;;;;;;;;4979979;28;20050;-79
2023/05/03 01:18:23;;;;;;;6.75;4.93;;;;;;;;;;5002517;28;20097;-78
2023/05/03 01:20:50;;;;;;;7.30;4.65;;;;;;;;;;4979328;28;20079;-77
2023/05/03 01:23:38;;;;;;;7.13;5.20;;;;;;;;;;4989302;28;20045;-78
2023/05/03 01:26:18;;;;;;;9.23;5.40;;;;;;;;;;5013846;28;20054;-78
2023/05/03 01:28:44;;;;;;;8.77;5.22;;;;;;;;;;4997892;28;20128;-78
2023/05/03 01:31:13;;;;;;;8.60;5.68;;;;;;;;;;4996184;28;20421;-77
2023/05/03 01:34:03;;;;;;;10.18;6.13;;;;;;;;;;4998109;28;20055;-78
2023/05/03 01:36:33;;;;;;;10.00;5.80;;;;;;;;;;4989925;28;20061;-77
2023/05/03 01:39:03;;;;;;;11.23;6.15;;;;;;;;;;4998518;28;20083;-78
2023/05/03 01:41:30;;;;;;;7.45;5.57;;;;;;;;;;4988275;28;20045;-76
2023/05/03 01:43:57;;;;;;;10.30;6.30;;;;;;;;;;4982984;28;20057;-77
2023/05/03 01:46:23;;;;;;;8.52;6.00;;;;;;;;;;4958528;28;20058;-77
2023/05/03 01:48:50;;;;;;;9.55;5.95;;;;;;;;;;4958506;28;20422;-77
2023/05/03 01:51:17;;;;;;;10.10;6.22;;;;;;;;;;4968088;28;20577;-77
2023/05/03 01:53:44;;;;;;;8.30;5.63;;;;;;;;;;4994016;28;20061;-78
2023/05/03 01:56:10;;;;;;;8.82;6.00;;;;;;;;;;4977974;28;20046;-78
2023/05/03 01:58:37;;;;;;;6.32;5.03;;;;;;;;;;4978716;28;20049;-76
2023/05/03 02:01:05;;;;;;;8.57;5.75;;;;;;;;;;4978421;28;20062;-76
2023/05/03 02:03:33;;;;;;;7.97;5.82;;;;;;;;;;4995382;28;20164;-77
2023/05/03 02:05:59;;;;;;;10.73;7.35;;;;;;;;;;4997562;28;20057;-77
2023/05/03 02:08:26;;;;;;;8.80;5.53;;;;;;;;;;5013471;28;20103;-77
2023/05/03 02:10:53;;;;;;;10.35;6.07;;;;;;;;;;5017148;28;20132;-78
2023/05/03 02:13:19;;;;;;;8.88;5.93;;;;;;;;;;5002651;28;20056;-78
2023/05/03 02:15:46;;;;;;;6.63;4.95;;;;;;;;;;5018621;28;20049;-78
2023/05/03 02:18:15;;;;;;;8.82;6.55;;;;;;;;;;5002444;28;20050;-78
2023/05/03 02:20:45;;;;;;;8.68;6.45;;;;;;;;;;5002255;28;20053;-78
2023/05/03 02:23:12;;;;;;;8.73;5.57;;;;;;;;;;5002423;28;20060;-78
2023/05/03 02:25:39;;;;;;;8.35;6.05;;;;;;;;;;5002331;28;20064;-78
2023/05/03 02:28:06;;;;;;;8.32;6.07;;;;;;;;;;5001278;28;20099;-77
2023/05/03 02:30:33;;;;;;;10.00;6.22;;;;;;;;;;5016529;28;20053;-77
2023/05/03 02:33:01;;;;;;;9.82;6.50;;;;;;;;;;5000735;28;20057;-77
2023/05/03 02:35:27;;;;;;;7.72;5.93;;;;;;;;;;5016326;28;20049;-77
2023/05/03 02:37:54;;;;;;;7.75;6.25;;;;;;;;;;5000330;28;20456;-77
2023/05/03 02:40:21;;;;;;;7.10;5.80;;;;;;;;;;4999968;28;20068;-75
2023/05/03 02:42:48;;;;;;;9.85;5.95;;;;;;;;;;5016423;28;20057;-77
2023/05/03 02:45:15;;;;;;;11.00;6.95;;;;;;;;;;5016072;28;20049;-77
2023/05/03 02:47:42;;;;;;;9.60;6.32;;;;;;;;;;4998615;28;20053;-77
2023/05/03 02:50:08;;;;;;;10.48;7.13;;;;;;;;;;4999956;28;20061;-76
2023/05/03 02:52:35;;;;;;;11.63;7.85;;;;;;;;;;5016241;28;20056;-77
2023/05/03 02:55:02;;;;;;;11.00;8.10;;;;;;;;;;5016109;28;20057;-77
2023/05/03 02:57:29;;;;;;;10.20;7.47;;;;;;;;;;5016028;28;20049;-77
2023/05/03 02:59:55;;;;;;;10.30;7.57;;;;;;;;;;5015969;28;20049;-77
2023/05/03 03:02:22;;;;;;;12.75;8.73;;;;;;;;;;5018438;28;20114;-79
2023/05/03 03:04:49;;;;;;;14.07;7.95;;;;;;;;;;5003864;28;20080;-79
2023/05/03 03:07:16;;;;;;;12.20;7.93;;;;;;;;;;5002960;28;20068;-77
2023/05/03 03:09:42;;;;;;;11.73;8.25;;;;;;;;;;5002241;28;20057;-78
2023/05/03 03:12:09;;;;;;;11.88;8.00;;;;;;;;;;5001829;28;20054;-78
2023/05/03 03:14:36;;;;;;;10.77;7.70;;;;;;;;;;5018204;28;20049;-78
2023/05/03 03:17:06;;;;;;;13.57;8.85;;;;;;;;;;5002534;28;20076;-78
2023/05/03 03:19:33;;;;;;;17.30;8.75;;;;;;;;;;5002069;28;20053;-79
2023/05/03 03:22:00;;;;;;;11.90;8.05;;;;;;;;;;4984697;28;20060;-78
2023/05/03 03:24:26;;;;;;;14.32;8.60;;;;;;;;;;5015954;28;20045;-77
2023/05/03 03:26:53;;;;;;;12.80;8.00;;;;;;;;;;4999370;28;20053;-78
2023/05/03 03:29:20;;;;;;;10.98;7.85;;;;;;;;;;4999743;28;20060;-77
2023/05/03 03:31:46;;;;;;;14.10;8.05;;;;;;;;;;4999486;28;20064;-76
2023/05/03 03:34:13;;;;;;;10.82;8.32;;;;;;;;;;4999371;28;20052;-77
2023/05/03 03:36:40;;;;;;;12.88;8.30;;;;;;;;;;5009678;28;20560;-77
2023/05/03 03:39:06;;;;;;;14.82;9.25;;;;;;;;;;4995828;28;20517;-77
2023/05/03 03:41:33;;;;;;;13.85;9.18;;;;;;;;;;4979625;28;20469;-77
2023/05/03 03:44:00;;;;;;;15.30;8.80;;;;;;;;;;4995781;28;20057;-77
2023/05/03 03:46:26;;;;;;;17.20;9.13;;;;;;;;;;4997137;28;20050;-79
2023/05/03 03:48:53;;;;;;;14.35;9.23;;;;;;;;;;4981807;28;20048;-78
2023/05/03 03:51:20;;;;;;;12.00;9.02;;;;;;;;;;4996307;28;20060;-77
2023/05/03 03:53:47;;;;;;;15.35;9.65;;;;;;;;;;4995359;28;20108;-76
2023/05/03 03:56:13;;;;;;;17.60;9.93;;;;;;;;;;4995395;28;20050;-76
2023/05/03 03:58:40;;;;;;;16.05;9.85;;;;;;;;;;4995461;28;20049;-77
2023/05/03 04:01:07;;;;;;;17.48;10.15;;;;;;;;;;4979106;28;20054;-76
2023/05/03 04:03:34;;;;;;;17.38;9.88;;;;;;;;;;4980775;28;20510;-76
2023/05/03 04:06:01;;;;;;;20.13;11.60;;;;;;;;;;5004886;28;20050;-76
2023/05/03 04:08:28;;;;;;;16.90;10.75;;;;;;;;;;5021628;28;20060;-76
2023/05/03 04:10:56;;;;;;;18.73;10.60;;;;;;;;;;5027526;28;20057;-76
2023/05/03 04:13:23;;;;;;;16.10;10.15;;;;;;;;;;4998687;28;20049;-77
2023/05/03 04:15:54;;;;;;;15.75;9.90;;;;;;;;;;4996453;28;20060;-78
2023/05/03 04:18:21;;;;;;;16.63;11.18;;;;;;;;;;4984728;28;20045;-78
2023/05/03 04:20:48;;;;;;;18.15;10.65;;;;;;;;;;4984447;28;20060;-78
2023/05/03 04:23:15;;;;;;;19.25;10.32;;;;;;;;;;4989149;28;20058;-78
2023/05/03 04:25:45;;;;;;;15.80;10.25;;;;;;;;;;4997018;28;20057;-79
2023/05/03 04:28:12;;;;;;;21.35;11.80;;;;;;;;;;4979519;28;20041;-78
2023/05/03 04:30:40;;;;;;;15.57;10.70;;;;;;;;;;4995460;28;20072;-78
2023/05/03 04:33:08;;;;;;;16.75;10.10;;;;;;;;;;5001119;28;20081;-80
2023/05/03 04:35:34;;;;;;;19.30;10.30;;;;;;;;;;4980964;28;20096;-80
2023/05/03 04:38:02;;;;;;;17.55;11.00;;;;;;;;;;4996859;28;20056;-80
2023/05/03 04:40:28;;;;;;;16.17;11.15;;;;;;;;;;4980928;28;20185;-79
2023/05/03 04:42:56;;;;;;;15.68;10.88;;;;;;;;;;4997124;28;20096;-79
2023/05/03 04:45:23;;;;;;;17.50;11.05;;;;;;;;;;4981078;28;20046;-80
2023/05/03 04:47:51;;;;;;;19.30;10.77;;;;;;;;;;5020417;28;20041;-79
2023/05/03 04:50:18;;;;;;;17.80;11.18;;;;;;;;;;5013680;28;20112;-80
2023/05/03 04:52:45;;;;;;;18.27;10.88;;;;;;;;;;4993645;28;20050;-78
2023/05/03 04:55:13;;;;;;;17.65;10.57;;;;;;;;;;5009387;28;20053;-80
2023/05/03 04:57:39;;;;;;;17.13;11.05;;;;;;;;;;5000756;28;20065;-80
2023/05/03 05:00:10;;;;;;;16.27;10.75;;;;;;;;;;5000686;28;20605;-81
2023/05/03 05:02:37;;;;;;;17.10;10.07;;;;;;;;;;4999820;28;20064;-80
2023/05/03 05:05:05;;;;;;;18.75;11.10;;;;;;;;;;5015621;28;20053;-79
2023/05/03 05:07:33;;;;;;;16.33;10.95;;;;;;;;;;4982540;28;20054;-80
2023/05/03 05:09:59;;;;;;;17.58;11.45;;;;;;;;;;4980694;28;20140;-80
2023/05/03 05:12:28;;;;;;;17.38;10.88;;;;;;;;;;4986115;28;20048;-79
2023/05/03 05:14:54;;;;;;;19.48;11.95;;;;;;;;;;5014738;28;20076;-82
2023/05/03 05:17:22;;;;;;;22.25;12.57;;;;;;;;;;5002966;28;20053;-82
2023/05/03 05:19:49;;;;;;;20.85;11.90;;;;;;;;;;5002043;28;20111;-80
2023/05/03 05:22:16;;;;;;;19.42;10.82;;;;;;;;;;4992132;28;20049;-82
2023/05/03 05:24:44;;;;;;;24.42;12.52;;;;;;;;;;4997417;28;20053;-80
2023/05/03 05:27:11;;;;;;;17.73;10.77;;;;;;;;;;4966379;28;20053;-83
2023/05/03 05:29:38;;;;;;;17.70;11.25;;;;;;;;;;4983591;28;20050;-79
2023/05/03 05:32:05;;;;;;;23.65;11.65;;;;;;;;;;4996196;28;20058;-79
2023/05/03 05:34:32;;;;;;;17.20;11.32;;;;;;;;;;4987652;28;20465;-78
2023/05/03 05:37:09;;;;;;;21.33;12.10;;;;;;;;;;5009467;28;20053;-78
2023/05/03 05:39:35;;;;;;;18.35;10.90;;;;;;;;;;5015746;28;20414;-78
2023/05/03 05:42:03;;;;;;;13.80;10.00;;;;;;;;;;5014918;28;20399;-77
2023/05/03 05:44:30;;;;;;;16.75;10.40;;;;;;;;;;4998050;28;20053;-77
2023/05/03 05:46:57;;;;;;;20.63;11.73;;;;;;;;;;5017305;28;20057;-76
2023/05/03 05:49:24;;;;;;;18.88;11.65;;;;;;;;;;5015942;28;20042;-76
2023/05/03 05:51:50;;;;;;;16.08;11.75;;;;;;;;;;5015510;28;20610;-76
2023/05/03 05:54:17;;;;;;;15.00;10.07;;;;;;;;;;4999609;28;20060;-75
2023/05/03 05:56:44;;;;;;;15.48;9.70;;;;;;;;;;5015586;28;20049;-76
2023/05/03 05:59:11;;;;;;;15.05;10.27;;;;;;;;;;5000133;28;20460;-75
2023/05/03 06:01:40;;;;;;;15.15;9.35;;;;;;;;;;5015247;28;20061;-76
2023/05/03 06:04:07;;;;;;;17.42;10.73;;;;;;;;;;5015262;28;20056;-75
2023/05/03 06:06:34;;;;;;;17.60;9.73;;;;;;;;;;4999424;28;20064;-75
2023/05/03 06:09:01;;;;;;;16.80;10.95;;;;;;;;;;5015204;28;20046;-75
2023/05/03 06:11:49;;;;;;;16.50;9.52;;;;;;;;;;5004580;28;20045;-76
2023/05/03 06:14:16;;;;;;;13.73;10.40;;;;;;;;;;4999410;28;20417;-76
2023/05/03 06:16:43;;;;;;;15.90;10.52;;;;;;;;;;5000956;28;20053;-76
2023/05/03 06:19:09;;;;;;;15.60;9.88;;;;;;;;;;5016290;28;20056;-75
2023/05/03 06:21:36;;;;;;;14.60;9.68;;;;;;;;;;5015744;28;20449;-77
2023/05/03 06:24:03;;;;;;;16.75;9.73;;;;;;;;;;5021261;28;20053;-79
2023/05/03 06:26:30;;;;;;;15.60;10.40;;;;;;;;;;5000165;28;20053;-78
2023/05/03 06:28:56;;;;;;;12.13;8.85;;;;;;;;;;5000669;28;20568;-79
2023/05/03 06:31:23;;;;;;;14.68;9.23;;;;;;;;;;5001005;28;20417;-77
2023/05/03 06:33:50;;;;;;;12.98;9.48;;;;;;;;;;5008652;28;20053;-81
2023/05/03 06:36:17;;;;;;;13.18;8.75;;;;;;;;;;5004758;28;20072;-80
2023/05/03 06:38:43;;;;;;;13.80;10.07;;;;;;;;;;5018544;28;20053;-91
2023/05/03 06:41:10;;;;;;;13.35;8.98;;;;;;;;;;5003195;28;20064;-78
2023/05/03 06:43:37;;;;;;;12.55;9.38;;;;;;;;;;4999663;28;20053;-76
2023/05/03 06:46:04;;;;;;;14.10;9.68;;;;;;;;;;5007672;28;20054;-76
2023/05/03 06:48:31;;;;;;;11.63;9.18;;;;;;;;;;4995818;28;20054;-84
2023/05/03 06:50:58;;;;;;;12.30;9.00;;;;;;;;;;4985274;28;20132;-80
2023/05/03 06:53:25;;;;;;;12.77;9.40;;;;;;;;;;4983900;28;20056;-80
2023/05/03 06:55:51;;;;;;;13.90;9.02;;;;;;;;;;4986324;28;20105;-80
2023/05/03 06:58:18;;;;;;;14.02;9.48;;;;;;;;;;5004613;28;20050;-81
2023/05/03 07:00:45;;;;;;;14.85;9.85;;;;;;;;;;4987782;28;20057;-82
2023/05/03 07:03:12;;;;;;;11.95;9.10;;;;;;;;;;5003859;28;20420;-82
2023/05/03 07:05:39;;;;;;;11.88;8.63;;;;;;;;;;5006183;28;20057;-80
2023/05/03 07:08:06;;;;;;;13.95;9.13;;;;;;;;;;4989652;28;20046;-81
2023/05/03 07:10:33;;;;;;;13.65;8.93;;;;;;;;;;5003918;28;20502;-80
2023/05/03 07:13:00;;;;;;;14.52;9.15;;;;;;;;;;5019565;28;20505;-80
2023/05/03 07:15:27;;;;;;;12.13;8.95;;;;;;;;;;5002495;28;20139;-79
2023/05/03 07:17:53;;;;;;;15.05;9.65;;;;;;;;;;4987804;28;20068;-80
2023/05/03 07:20:20;;;;;;;10.88;8.45;;;;;;;;;;5003516;28;20068;-80
2023/05/03 07:22:47;;;;;;;13.32;8.35;;;;;;;;;;5003905;28;20049;-80
2023/05/03 07:25:16;;;;;;;11.93;7.93;;;;;;;;;;5004082;28;20060;-80
2023/05/03 07:27:43;;;;;;;13.25;7.90;;;;;;;;;;5019251;28;20053;-80
2023/05/03 07:30:10;;;;;;;10.77;8.10;;;;;;;;;;5019428;28;20053;-79
2023/05/03 07:32:37;;;;;;;11.32;8.25;;;;;;;;;;5005496;28;20054;-80
2023/05/03 07:35:06;;;;;;;15.75;9.23;;;;;;;;;;5006196;28;20584;-80
2023/05/03 07:37:32;;;;;;;9.63;8.55;;;;;;;;;;5005844;28;20409;-80
2023/05/03 07:39:59;;;;;;;11.45;8.60;;;;;;;;;;5003479;28;20521;-81
2023/05/03 07:42:26;;;;;;;10.73;8.35;;;;;;;;;;5003754;28;20067;-80
2023/05/03 07:44:54;;;;;;;16.98;8.07;;;;;;;;;;5004055;28;20065;-80
2023/05/03 07:47:21;;;;;;;11.75;8.45;;;;;;;;;;5004796;28;20058;-81
2023/05/03 07:49:49;;;;;;;13.77;8.95;;;;;;;;;;5004597;28;20088;-80
2023/05/03 07:52:16;;;;;;;11.27;7.95;;;;;;;;;;5021543;28;20425;-80
2023/05/03 07:54:44;;;;;;;9.95;7.05;;;;;;;;;;5019423;28;20498;-80
2023/05/03 07:57:15;;;;;;;11.23;7.07;;;;;;;;;;5002862;28;20053;-81
2023/05/03 07:59:42;;;;;;;11.73;7.28;;;;;;;;;;5003188;28;20077;-80
2023/05/03 08:02:09;;;;;;;9.05;6.88;;;;;;;;;;5004617;28;20489;-81
2023/05/03 08:04:35;;;;;;;11.35;7.07;;;;;;;;;;5040042;28;20053;-79
2023/05/03 08:07:03;;;;;;;10.20;7.95;;;;;;;;;;5005465;28;20168;-80
2023/05/03 08:09:30;;;;;;;7.28;6.10;;;;;;;;;;5002387;28;20049;-81
2023/05/03 08:11:56;;;;;;;11.35;7.20;;;;;;;;;;5001172;28;20050;-81
2023/05/03 08:14:23;;;;;;;8.43;6.72;;;;;;;;;;5001579;28;20092;-81
2023/05/03 08:16:50;;;;;;;7.78;6.90;;;;;;;;;;5000802;28;20053;-80
2023/05/03 08:19:17;;;;;;;8.75;6.97;;;;;;;;;;5017472;28;20053;-80
2023/05/03 08:21:45;;;;;;;9.23;6.90;;;;;;;;;;5003324;28;20132;-80
2023/05/03 08:24:15;;;;;;;7.47;6.68;;;;;;;;;;5003350;28;20485;-81
2023/05/03 08:26:43;;;;;;;9.57;6.18;;;;;;;;;;5018265;28;20075;-80
2023/05/03 08:29:10;;;;;;;9.48;7.03;;;;;;;;;;4999683;28;20049;-78
2023/05/03 08:31:37;;;;;;;7.18;5.43;;;;;;;;;;5014459;28;20057;-78
2023/05/03 08:34:05;;;;;;;9.68;6.97;;;;;;;;;;5016767;28;20053;-79
2023/05/03 08:36:50;;;;;;;8.95;6.85;;;;;;;;;;5004169;28;20052;-79
2023/05/03 08:39:17;;;;;;;9.18;7.28;;;;;;;;;;4999162;28;20057;-78
2023/05/03 08:41:44;;;;;;;11.75;7.32;;;;;;;;;;4998510;28;20060;-78
2023/05/03 08:44:12;;;;;;;8.00;7.15;;;;;;;;;;4998186;28;20058;-77
2023/05/03 08:46:39;;;;;;;8.35;6.65;;;;;;;;;;5018377;28;20053;-78
2023/05/03 08:49:06;;;;;;;10.65;6.97;;;;;;;;;;4999106;28;20052;-77
2023/05/03 08:51:33;;;;;;;7.28;6.32;;;;;;;;;;4997805;28;20050;-77
2023/05/03 08:53:59;;;;;;;7.43;5.20;;;;;;;;;;4962032;28;20142;-75
2023/05/03 08:56:34;;;;;;;8.02;5.75;;;;;;;;;;4994378;28;20052;-74
2023/05/03 08:59:06;;;;;;;7.22;6.53;;;;;;;;;;4964908;28;20050;-75
2023/05/03 09:01:40;;;;;;;8.85;6.80;;;;;;;;;;4993767;28;20545;-76
2023/05/03 09:04:10;;;;;;;7.88;6.53;;;;;;;;;;4961639;28;20046;-74
2023/05/03 09:06:37;;;;;;;9.52;6.85;;;;;;;;;;4994807;28;20053;-74
2023/05/03 09:09:08;;;;;;;8.07;6.40;;;;;;;;;;4993874;28;20140;-74
2023/05/03 09:11:37;;;;;;;7.40;6.60;;;;;;;;;;4978175;28;20050;-75
2023/05/03 09:14:08;;;;;;;8.43;6.60;;;;;;;;;;4982157;28;20053;-76
2023/05/03 09:16:35;;;;;;;6.47;5.88;;;;;;;;;;4997426;28;20053;-76
2023/05/03 09:19:08;;;;;;;10.57;7.03;;;;;;;;;;5002998;28;20414;-76
2023/05/03 09:21:35;;;;;;;9.63;7.53;;;;;;;;;;4978405;28;20087;-76
2023/05/03 09:24:11;;;;;;;8.05;7.25;;;;;;;;;;4987222;28;20137;-77
2023/05/03 09:26:41;;;;;;;8.25;6.30;;;;;;;;;;4967926;28;20054;-77
2023/05/03 09:29:09;;;;;;;6.57;5.65;;;;;;;;;;4979314;28;20061;-77
2023/05/03 09:31:36;;;;;;;8.70;6.78;;;;;;;;;;4985194;28;20176;-77
2023/05/03 09:34:20;;;;;;;8.25;5.22;;;;;;;;;;4980074;28;20060;-76
2023/05/03 09:36:46;;;;;;;7.78;5.53;;;;;;;;;;4991045;28;20084;-76
2023/05/03 09:39:17;;;;;;;8.82;6.30;;;;;;;;;;4981963;28;20133;-76
2023/05/03 09:41:45;;;;;;;6.75;5.88;;;;;;;;;;4982684;28;20054;-77
2023/05/03 09:44:12;;;;;;;7.00;5.90;;;;;;;;;;5000764;28;20509;-77
2023/05/03 09:46:38;;;;;;;10.13;6.13;;;;;;;;;;4968536;28;20058;-80
2023/05/03 09:49:05;;;;;;;6.18;5.28;;;;;;;;;;4983024;28;20069;-76
2023/05/03 09:51:32;;;;;;;6.63;4.82;;;;;;;;;;4997607;28;20089;-76
2023/05/03 09:53:59;;;;;;;8.55;5.55;;;;;;;;;;4984386;28;20057;-76
2023/05/03 09:56:26;;;;;;;5.78;5.05;;;;;;;;;;4984331;28;20058;-77
2023/05/03 09:58:53;;;;;;;6.03;5.45;;;;;;;;;;4981643;28;20053;-75
2023/05/03 10:01:23;;;;;;;9.05;6.43;;;;;;;;;;4979801;28;20053;-75
2023/05/03 10:03:51;;;;;;;6.75;5.43;;;;;;;;;;4963249;28;20050;-78
2023/05/03 10:06:23;;;;;;;7.15;5.50;;;;;;;;;;4984697;28;20131;-79
2023/05/03 10:08:56;;;;;;;7.25;6.10;;;;;;;;;;4983608;28;20515;-79
2023/05/03 10:11:25;;;;;;;7.30;5.63;;;;;;;;;;4999188;28;20050;-80
2023/05/03 10:13:53;;;;;;;8.00;4.85;;;;;;;;;;4983602;28;20058;-79
2023/05/03 10:16:24;;;;;;;5.13;4.63;;;;;;;;;;4964882;28;20061;-80
2023/05/03 10:18:55;;;;;;;7.43;5.85;;;;;;;;;;4983668;28;20093;-81
2023/05/03 10:21:37;;;;;;;6.77;6.07;;;;;;;;;;4988001;28;20058;-80
2023/05/03 10:24:11;;;;;;;8.32;5.28;;;;;;;;;;4969470;28;20053;-80
2023/05/03 10:26:45;;;;;;;6.40;4.45;;;;;;;;;;4993359;28;20050;-80
2023/05/03 10:29:33;;;;;;;5.18;4.20;;;;;;;;;;4984258;28;20493;-83
2023/05/03 10:32:23;;;;;;;5.03;4.38;;;;;;;;;;4992342;28;20054;-83
2023/05/03 10:34:55;;;;;;;6.28;4.57;;;;;;;;;;4977049;28;20081;-84
2023/05/03 10:37:22;;;;;;;4.85;3.95;;;;;;;;;;4998141;28;20050;-82
2023/05/03 10:39:51;;;;;;;4.72;4.00;;;;;;;;;;4990684;28;20054;-78
2023/05/03 10:42:25;;;;;;;6.57;4.78;;;;;;;;;;4989620;28;20049;-75
2023/05/03 10:44:53;;;;;;;4.85;3.78;;;;;;;;;;4984491;28;20053;-75
2023/05/03 10:47:22;;;;;;;4.68;3.78;;;;;;;;;;4982052;28;20058;-73
2023/05/03 10:50:25;;;;;;;4.95;4.25;;;;;;;;;;4973442;28;20055;-74
2023/05/03 10:52:52;;;;;;;5.25;4.10;;;;;;;;;;4986729;28;20045;-74
2023/05/03 10:55:21;;;;;;;4.78;3.50;;;;;;;;;;4999738;28;20141;-74
2023/05/03 10:57:49;;;;;;;5.40;3.88;;;;;;;;;;4983992;28;20050;-74
2023/05/03 11:00:37;;;;;;;7.78;4.80;;;;;;;;;;4968409;28;20054;-73
2023/05/03 11:03:27;;;;;;;5.40;4.90;;;;;;;;;;5000569;28;20446;-75
2023/05/03 11:05:54;;;;;;;7.32;4.70;;;;;;;;;;5001239;28;20070;-76
2023/05/03 11:08:25;;;;;;;6.28;4.75;;;;;;;;;;5001321;28;20043;-76
2023/05/03 11:10:59;;;;;;;6.90;4.88;;;;;;;;;;4984958;28;20554;-74
2023/05/03 11:13:32;;;;;;;6.30;5.15;;;;;;;;;;5001011;28;20054;-76
2023/05/03 11:15:59;;;;;;;5.53;4.95;;;;;;;;;;5004371;28;20590;-75
2023/05/03 11:18:26;;;;;;;7.32;5.03;;;;;;;;;;5001989;28;20050;-74
2023/05/03 11:20:54;;;;;;;5.05;4.55;;;;;;;;;;4992154;28;20084;-75
2023/05/03 11:23:33;;;;;;;6.18;4.55;;;;;;;;;;4969738;28;20077;-75
2023/05/03 11:26:05;;;;;;;5.15;4.63;;;;;;;;;;5002060;28;20053;-78
2023/05/03 11:28:32;;;;;;;6.30;5.00;;;;;;;;;;5015521;28;20145;-76
2023/05/03 11:31:00;;;;;;;9.23;4.82;;;;;;;;;;4998711;28;20488;-75
2023/05/03 11:33:29;;;;;;;6.00;4.82;;;;;;;;;;5014500;28;20050;-76
2023/05/03 11:35:56;;;;;;;5.63;3.83;;;;;;;;;;4999111;28;20061;-76
2023/05/03 11:38:23;;;;;;;6.60;5.35;;;;;;;;;;5002454;28;20107;-76
2023/05/03 11:40:50;;;;;;;5.63;5.13;;;;;;;;;;4984600;28;20490;-76
2023/05/03 11:43:17;;;;;;;6.07;4.68;;;;;;;;;;4983244;28;20053;-76
2023/05/03 11:45:45;;;;;;;6.25;5.38;;;;;;;;;;4998628;28;20053;-76
2023/05/03 11:48:12;;;;;;;4.45;4.05;;;;;;;;;;5015302;28;20536;-76
2023/05/03 11:50:54;;;;;;;4.22;3.83;;;;;;;;;;5015999;28;20136;-76
2023/05/03 11:53:24;;;;;;;5.68;3.30;;;;;;;;;;5000041;28;20564;-76
2023/05/03 11:55:52;;;;;;;3.80;3.35;;;;;;;;;;5015521;28;20424;-76
2023/05/03 11:58:22;;;;;;;4.20;3.22;;;;;;;;;;5015715;28;20061;-76
2023/05/03 12:00:49;;;;;;;3.90;3.50;;;;;;;;;;5015322;28;20052;-76
2023/05/03 12:03:24;;;;;;;6.28;3.50;;;;;;;;;;5015165;28;20060;-76
2023/05/03 12:05:57;;;;;;;3.58;3.25;;;;;;;;;;5000885;28;20509;-76
2023/05/03 12:08:31;;;;;;;6.22;3.10;;;;;;;;;;5015596;28;20057;-76
2023/05/03 12:11:05;;;;;;;4.80;3.70;;;;;;;;;;5015873;28;20045;-76
2023/05/03 12:13:34;;;;;;;4.85;4.05;;;;;;;;;;5015394;28;20057;-76
2023/05/03 12:16:06;;;;;;;4.05;3.65;;;;;;;;;;5000200;28;20111;-76
2023/05/03 12:18:48;;;;;;;4.80;3.90;;;;;;;;;;5016366;28;20108;-75
2023/05/03 12:21:17;;;;;;;3.75;3.45;;;;;;;;;;5015074;28;20118;-76
2023/05/03 12:23:48;;;;;;;4.45;3.47;;;;;;;;;;4999634;28;20099;-76
2023/05/03 12:26:18;;;;;;;4.38;2.95;;;;;;;;;;5014850;28;20547;-76
2023/05/03 12:28:47;;;;;;;4.15;3.17;;;;;;;;;;5005772;28;20060;-76
2023/05/03 12:31:14;;;;;;;3.50;3.00;;;;;;;;;;4997724;28;20111;-76
2023/05/03 12:33:43;;;;;;;3.72;3.05;;;;;;;;;;4998983;28;20472;-76
2023/05/03 12:36:33;;;;;;;3.50;3.15;;;;;;;;;;5017345;28;20571;-76
2023/05/03 12:39:07;;;;;;;4.03;3.67;;;;;;;;;;4999627;28;20076;-75
2023/05/03 12:41:36;;;;;;;4.00;3.13;;;;;;;;;;4998771;28;20522;-76
2023/05/03 12:44:05;;;;;;;3.95;3.05;;;;;;;;;;4998444;28;20138;-76
2023/05/03 12:46:37;;;;;;;4.15;3.00;;;;;;;;;;4999196;28;20144;-76
2023/05/03 12:49:05;;;;;;;4.28;3.17;;;;;;;;;;4997838;28;20072;-76
2023/05/03 12:51:34;;;;;;;4.45;3.17;;;;;;;;;;5014209;28;20053;-75
2023/05/03 12:54:02;;;;;;;4.00;3.20;;;;;;;;;;4997374;28;20049;-76
2023/05/03 12:56:30;;;;;;;5.57;2.70;;;;;;;;;;4997773;28;20068;-76
2023/05/03 12:58:59;;;;;;;5.07;3.33;;;;;;;;;;4998742;28;20080;-77
2023/05/03 13:01:28;;;;;;;3.75;2.80;;;;;;;;;;5016495;28;20045;-78
2023/05/03 13:03:58;;;;;;;4.00;2.88;;;;;;;;;;5017159;28;20045;-77
2023/05/03 13:06:45;;;;;;;3.13;2.40;;;;;;;;;;5016679;28;20563;-77
2023/05/03 13:09:15;;;;;;;5.07;2.85;;;;;;;;;;4998185;28;20386;-76
2023/05/03 13:11:48;;;;;;;3.13;2.88;;;;;;;;;;5016694;28;20056;-79
2023/05/03 13:14:15;;;;;;;2.60;2.40;;;;;;;;;;5001184;28;20057;-77
2023/05/03 13:16:44;;;;;;;5.25;2.70;;;;;;;;;;5015953;28;20080;-77
2023/05/03 13:19:14;;;;;;;3.95;2.50;;;;;;;;;;5013126;28;20567;-78
2023/05/03 13:21:41;;;;;;;3.85;2.65;;;;;;;;;;4981124;28;20065;-77
2023/05/03 13:24:08;;;;;;;3.90;2.38;;;;;;;;;;5013280;28;20099;-77
2023/05/03 13:26:35;;;;;;;3.13;2.70;;;;;;;;;;4996264;28;20053;-77
2023/05/03 13:29:02;;;;;;;3.97;2.78;;;;;;;;;;5012606;28;20119;-77
2023/05/03 13:31:29;;;;;;;4.15;2.53;;;;;;;;;;4995909;28;20060;-76
2023/05/03 13:33:55;;;;;;;3.88;2.65;;;;;;;;;;5012032;28;20057;-76
2023/05/03 13:36:23;;;;;;;3.47;2.40;;;;;;;;;;5012528;28;20053;-76
2023/05/03 13:38:50;;;;;;;3.13;2.50;;;;;;;;;;5017989;28;20065;-76
2023/05/03 13:41:18;;;;;;;2.67;2.30;;;;;;;;;;5012401;28;20092;-76
2023/05/03 13:43:45;;;;;;;2.58;1.90;;;;;;;;;;4980149;28;20113;-76
2023/05/03 13:46:11;;;;;;;2.50;2.30;;;;;;;;;;4995919;28;20049;-76
2023/05/03 13:48:39;;;;;;;2.70;2.22;;;;;;;;;;4995682;28;20421;-76
2023/05/03 13:51:12;;;;;;;2.10;1.92;;;;;;;;;;5011557;28;20051;-75
2023/05/03 13:53:39;;;;;;;4.32;2.65;;;;;;;;;;4995480;28;20772;-77
2023/05/03 13:56:06;;;;;;;3.75;2.30;;;;;;;;;;4997787;28;20053;-78
2023/05/03 13:58:37;;;;;;;3.65;2.75;;;;;;;;;;4999951;28;20132;-78
2023/05/03 14:01:05;;;;;;;3.83;2.42;;;;;;;;;;4993324;28;20502;-79
2023/05/03 14:03:32;;;;;;;5.68;2.65;;;;;;;;;;4988029;28;20464;-78
2023/05/03 14:05:59;;;;;;;4.07;2.80;;;;;;;;;;5005913;28;20057;-78
2023/05/03 14:08:26;;;;;;;3.63;2.28;;;;;;;;;;5004005;28;20053;-81
2023/05/03 14:10:53;;;;;;;3.47;2.60;;;;;;;;;;5005511;28;20080;-82
2023/05/03 14:13:20;;;;;;;3.17;2.47;;;;;;;;;;4999899;28;20670;-76
2023/05/03 14:15:47;;;;;;;3.53;2.40;;;;;;;;;;4980846;28;20054;-75
2023/05/03 14:18:14;;;;;;;3.85;2.45;;;;;;;;;;4981086;28;20084;-77
2023/05/03 14:20:42;;;;;;;3.22;2.33;;;;;;;;;;4982189;28;20502;-77
2023/05/03 14:23:08;;;;;;;3.33;2.65;;;;;;;;;;4983989;28;20060;-76
2023/05/03 14:25:35;;;;;;;3.28;2.45;;;;;;;;;;4981006;28;20784;-77
2023/05/03 14:28:02;;;;;;;2.22;2.00;;;;;;;;;;5006020;28;20129;-74
2023/05/03 14:30:29;;;;;;;3.63;2.17;;;;;;;;;;4986746;28;20053;-76
2023/05/03 14:32:56;;;;;;;2.90;1.73;;;;;;;;;;4980019;28;20140;-80
2023/05/03 14:35:23;;;;;;;3.63;2.20;;;;;;;;;;4979984;28;20056;-79
2023/05/03 14:37:50;;;;;;;2.35;2.05;;;;;;;;;;4979850;28;20103;-76
2023/05/03 14:40:17;;;;;;;2.80;2.22;;;;;;;;;;4996374;28;20050;-78
2023/05/03 14:42:44;;;;;;;2.05;1.85;;;;;;;;;;4992000;28;20050;-76
2023/05/03 14:45:13;;;;;;;3.80;2.35;;;;;;;;;;5007984;28;20062;-77